sensor_id;sensor_type;location;lat;lon;timestamp;P1;durP1;ratioP1;P2;durP2;ratioP2
60054;SDS011;45930;53.514;55.904;2024-02-14T00:00:50;15.60;;;8.80;;
60054;SDS011;45930;53.514;55.904;2024-02-14T00:01:51;15.50;;;7.97;;
60054;SDS011;45930;53.514;55.904;2024-02-14T00:02:52;13.37;;;9.37;;
60054;SDS011;45930;53.514;55.904;2024-02-14T00:03:53;17.70;;;9.57;;
60054;SDS011;45930;53.514;55.904;2024-02-14T00:04:53;14.27;;;8.20;;
60054;SDS011;45930;53.514;55.904;2024-02-14T00:05:54;18.65;;;8.85;;
60054;SDS011;45930;53.514;55.904;2024-02-14T00:06:57;17.55;;;9.90;;
60054;SDS011;45930;53.514;55.904;2024-02-14T00:07:58;16.40;;;10.03;;
60054;SDS011;45930;53.514;55.904;2024-02-14T00:08:58;21.53;;;10.97;;
60054;SDS011;45930;53.514;55.904;2024-02-14T00:10:00;12.23;;;8.32;;
60054;SDS011;45930;53.514;55.904;2024-02-14T00:11:00;14.50;;;9.97;;
60054;SDS011;45930;53.514;55.904;2024-02-14T00:12:02;17.40;;;8.88;;
60054;SDS011;45930;53.514;55.904;2024-02-14T00:13:03;16.20;;;8.70;;
60054;SDS011;45930;53.514;55.904;2024-02-14T00:14:04;14.33;;;9.60;;
60054;SDS011;45930;53.514;55.904;2024-02-14T00:15:07;19.38;;;10.70;;
60054;SDS011;45930;53.514;55.904;2024-02-14T00:16:08;13.75;;;9.23;;
60054;SDS011;45930;53.514;55.904;2024-02-14T00:17:10;18.08;;;10.45;;
60054;SDS011;45930;53.514;55.904;2024-02-14T00:18:10;18.17;;;10.63;;
60054;SDS011;45930;53.514;55.904;2024-02-14T00:19:11;19.40;;;11.77;;
60054;SDS011;45930;53.514;55.904;2024-02-14T00:20:12;17.20;;;10.73;;
60054;SDS011;45930;53.514;55.904;2024-02-14T00:21:23;21.15;;;11.93;;
60054;SDS011;45930;53.514;55.904;2024-02-14T00:22:24;18.35;;;10.30;;
60054;SDS011;45930;53.514;55.904;2024-02-14T00:23:25;20.77;;;12.10;;
60054;SDS011;45930;53.514;55.904;2024-02-14T00:24:26;17.37;;;10.43;;
60054;SDS011;45930;53.514;55.904;2024-02-14T00:25:28;20.08;;;9.30;;
60054;SDS011;45930;53.514;55.904;2024-02-14T00:26:31;19.10;;;12.05;;
60054;SDS011;45930;53.514;55.904;2024-02-14T00:27:32;17.07;;;9.50;;
60054;SDS011;45930;53.514;55.904;2024-02-14T00:28:33;23.25;;;12.65;;
60054;SDS011;45930;53.514;55.904;2024-02-14T00:29:34;18.53;;;9.47;;
60054;SDS011;45930;53.514;55.904;2024-02-14T00:30:34;16.90;;;10.33;;
60054;SDS011;45930;53.514;55.904;2024-02-14T00:31:58;15.68;;;10.10;;
60054;SDS011;45930;53.514;55.904;2024-02-14T00:32:59;16.42;;;8.23;;
60054;SDS011;45930;53.514;55.904;2024-02-14T00:34:00;16.80;;;10.00;;
60054;SDS011;45930;53.514;55.904;2024-02-14T00:35:01;14.20;;;10.53;;
60054;SDS011;45930;53.514;55.904;2024-02-14T00:36:02;19.25;;;10.80;;
60054;SDS011;45930;53.514;55.904;2024-02-14T00:37:03;15.35;;;10.32;;
60054;SDS011;45930;53.514;55.904;2024-02-14T00:38:04;21.67;;;11.07;;
60054;SDS011;45930;53.514;55.904;2024-02-14T00:39:05;17.57;;;9.60;;
60054;SDS011;45930;53.514;55.904;2024-02-14T00:40:09;16.45;;;10.25;;
60054;SDS011;45930;53.514;55.904;2024-02-14T00:41:11;16.60;;;9.70;;
60054;SDS011;45930;53.514;55.904;2024-02-14T00:42:12;20.97;;;10.30;;
60054;SDS011;45930;53.514;55.904;2024-02-14T00:43:13;15.93;;;9.00;;
60054;SDS011;45930;53.514;55.904;2024-02-14T00:44:13;22.63;;;11.27;;
60054;SDS011;45930;53.514;55.904;2024-02-14T00:45:19;15.52;;;9.18;;
60054;SDS011;45930;53.514;55.904;2024-02-14T00:46:19;18.97;;;10.07;;
60054;SDS011;45930;53.514;55.904;2024-02-14T00:47:20;14.33;;;9.37;;
60054;SDS011;45930;53.514;55.904;2024-02-14T00:48:21;15.10;;;8.83;;
60054;SDS011;45930;53.514;55.904;2024-02-14T00:49:21;18.03;;;9.27;;
60054;SDS011;45930;53.514;55.904;2024-02-14T00:50:22;13.47;;;8.53;;
60054;SDS011;45930;53.514;55.904;2024-02-14T00:51:23;12.97;;;8.00;;
60054;SDS011;45930;53.514;55.904;2024-02-14T00:52:24;18.10;;;9.63;;
60054;SDS011;45930;53.514;55.904;2024-02-14T00:53:24;13.27;;;9.10;;
60054;SDS011;45930;53.514;55.904;2024-02-14T00:54:25;16.42;;;9.57;;
60054;SDS011;45930;53.514;55.904;2024-02-14T00:55:26;17.50;;;10.97;;
60054;SDS011;45930;53.514;55.904;2024-02-14T00:56:27;12.67;;;8.13;;
60054;SDS011;45930;53.514;55.904;2024-02-14T00:57:28;17.57;;;10.47;;
60054;SDS011;45930;53.514;55.904;2024-02-14T00:58:29;14.48;;;9.00;;
60054;SDS011;45930;53.514;55.904;2024-02-14T00:59:29;24.40;;;10.00;;
60054;SDS011;45930;53.514;55.904;2024-02-14T01:00:30;17.77;;;9.57;;
60054;SDS011;45930;53.514;55.904;2024-02-14T01:01:34;14.23;;;9.48;;
60054;SDS011;45930;53.514;55.904;2024-02-14T01:02:35;14.00;;;10.07;;
60054;SDS011;45930;53.514;55.904;2024-02-14T01:03:35;16.03;;;9.17;;
60054;SDS011;45930;53.514;55.904;2024-02-14T01:04:36;15.50;;;9.27;;
60054;SDS011;45930;53.514;55.904;2024-02-14T01:05:37;19.80;;;10.57;;
60054;SDS011;45930;53.514;55.904;2024-02-14T01:06:38;15.30;;;8.97;;
60054;SDS011;45930;53.514;55.904;2024-02-14T01:07:39;15.23;;;8.47;;
60054;SDS011;45930;53.514;55.904;2024-02-14T01:08:40;15.97;;;8.53;;
60054;SDS011;45930;53.514;55.904;2024-02-14T01:09:41;15.05;;;10.20;;
60054;SDS011;45930;53.514;55.904;2024-02-14T01:10:43;17.83;;;9.33;;
60054;SDS011;45930;53.514;55.904;2024-02-14T01:11:44;13.18;;;8.70;;
60054;SDS011;45930;53.514;55.904;2024-02-14T01:12:45;16.88;;;9.98;;
60054;SDS011;45930;53.514;55.904;2024-02-14T01:13:45;17.67;;;9.33;;
60054;SDS011;45930;53.514;55.904;2024-02-14T01:14:46;13.67;;;9.10;;
60054;SDS011;45930;53.514;55.904;2024-02-14T01:15:47;15.93;;;9.87;;
60054;SDS011;45930;53.514;55.904;2024-02-14T01:16:48;17.53;;;9.37;;
60054;SDS011;45930;53.514;55.904;2024-02-14T01:17:48;16.37;;;8.50;;
60054;SDS011;45930;53.514;55.904;2024-02-14T01:18:49;15.63;;;8.07;;
60054;SDS011;45930;53.514;55.904;2024-02-14T01:19:50;12.73;;;8.03;;
60054;SDS011;45930;53.514;55.904;2024-02-14T01:20:51;16.73;;;8.63;;
60054;SDS011;45930;53.514;55.904;2024-02-14T01:21:52;17.33;;;8.83;;
60054;SDS011;45930;53.514;55.904;2024-02-14T01:22:52;20.90;;;10.67;;
60054;SDS011;45930;53.514;55.904;2024-02-14T01:23:58;14.07;;;9.10;;
60054;SDS011;45930;53.514;55.904;2024-02-14T01:24:59;11.60;;;7.33;;
60054;SDS011;45930;53.514;55.904;2024-02-14T01:26:00;13.67;;;7.67;;
60054;SDS011;45930;53.514;55.904;2024-02-14T01:27:02;15.93;;;7.50;;
60054;SDS011;45930;53.514;55.904;2024-02-14T01:28:03;13.27;;;8.80;;
60054;SDS011;45930;53.514;55.904;2024-02-14T01:29:05;11.98;;;7.72;;
60054;SDS011;45930;53.514;55.904;2024-02-14T01:30:06;13.38;;;8.93;;
60054;SDS011;45930;53.514;55.904;2024-02-14T01:31:08;14.23;;;8.95;;
60054;SDS011;45930;53.514;55.904;2024-02-14T01:32:12;16.13;;;8.55;;
60054;SDS011;45930;53.514;55.904;2024-02-14T01:33:13;12.87;;;8.43;;
60054;SDS011;45930;53.514;55.904;2024-02-14T01:34:14;11.35;;;8.32;;
60054;SDS011;45930;53.514;55.904;2024-02-14T01:35:15;11.25;;;7.30;;
60054;SDS011;45930;53.514;55.904;2024-02-14T01:36:15;11.83;;;8.67;;
60054;SDS011;45930;53.514;55.904;2024-02-14T01:37:16;13.93;;;8.23;;
60054;SDS011;45930;53.514;55.904;2024-02-14T01:38:17;19.30;;;10.60;;
60054;SDS011;45930;53.514;55.904;2024-02-14T01:39:18;13.43;;;7.90;;
60054;SDS011;45930;53.514;55.904;2024-02-14T01:40:19;10.83;;;7.40;;
60054;SDS011;45930;53.514;55.904;2024-02-14T01:41:27;12.90;;;8.13;;
60054;SDS011;45930;53.514;55.904;2024-02-14T01:42:28;16.10;;;8.50;;
60054;SDS011;45930;53.514;55.904;2024-02-14T01:43:29;17.07;;;10.33;;
60054;SDS011;45930;53.514;55.904;2024-02-14T01:44:30;18.85;;;9.85;;
60054;SDS011;45930;53.514;55.904;2024-02-14T01:45:31;20.20;;;9.38;;
60054;SDS011;45930;53.514;55.904;2024-02-14T01:46:40;10.20;;;7.28;;
60054;SDS011;45930;53.514;55.904;2024-02-14T01:47:42;11.35;;;6.68;;
60054;SDS011;45930;53.514;55.904;2024-02-14T01:48:43;14.48;;;8.57;;
60054;SDS011;45930;53.514;55.904;2024-02-14T01:49:44;15.27;;;9.00;;
60054;SDS011;45930;53.514;55.904;2024-02-14T01:50:45;14.73;;;8.65;;
60054;SDS011;45930;53.514;55.904;2024-02-14T01:51:46;14.80;;;8.60;;
60054;SDS011;45930;53.514;55.904;2024-02-14T01:52:47;11.93;;;8.37;;
60054;SDS011;45930;53.514;55.904;2024-02-14T01:53:48;14.97;;;8.73;;
60054;SDS011;45930;53.514;55.904;2024-02-14T01:54:49;13.73;;;8.63;;
60054;SDS011;45930;53.514;55.904;2024-02-14T01:55:49;13.13;;;8.37;;
60054;SDS011;45930;53.514;55.904;2024-02-14T01:56:50;15.00;;;9.03;;
60054;SDS011;45930;53.514;55.904;2024-02-14T01:57:51;15.82;;;8.77;;
60054;SDS011;45930;53.514;55.904;2024-02-14T01:58:53;11.23;;;7.78;;
60054;SDS011;45930;53.514;55.904;2024-02-14T01:59:54;17.70;;;9.90;;
60054;SDS011;45930;53.514;55.904;2024-02-14T02:00:57;15.88;;;9.07;;
60054;SDS011;45930;53.514;55.904;2024-02-14T02:01:58;13.82;;;8.70;;
60054;SDS011;45930;53.514;55.904;2024-02-14T02:03:00;15.38;;;7.47;;
60054;SDS011;45930;53.514;55.904;2024-02-14T02:04:01;12.80;;;7.72;;
60054;SDS011;45930;53.514;55.904;2024-02-14T02:05:02;14.63;;;9.07;;
60054;SDS011;45930;53.514;55.904;2024-02-14T02:06:05;15.60;;;9.20;;
60054;SDS011;45930;53.514;55.904;2024-02-14T02:07:06;14.68;;;7.70;;
60054;SDS011;45930;53.514;55.904;2024-02-14T02:08:08;13.80;;;8.10;;
60054;SDS011;45930;53.514;55.904;2024-02-14T02:09:09;14.75;;;9.32;;
60054;SDS011;45930;53.514;55.904;2024-02-14T02:10:10;11.97;;;7.80;;
60054;SDS011;45930;53.514;55.904;2024-02-14T02:11:21;13.48;;;8.43;;
60054;SDS011;45930;53.514;55.904;2024-02-14T02:12:42;17.92;;;9.30;;
60054;SDS011;45930;53.514;55.904;2024-02-14T02:14:03;10.88;;;8.20;;
60054;SDS011;45930;53.514;55.904;2024-02-14T02:15:23;12.32;;;7.18;;
60054;SDS011;45930;53.514;55.904;2024-02-14T02:16:44;14.55;;;6.35;;
60054;SDS011;45930;53.514;55.904;2024-02-14T02:18:06;9.70;;;8.23;;
60054;SDS011;45930;53.514;55.904;2024-02-14T02:19:27;9.15;;;6.13;;
60054;SDS011;45930;53.514;55.904;2024-02-14T02:20:48;10.50;;;6.45;;
60054;SDS011;45930;53.514;55.904;2024-02-14T02:21:49;16.10;;;8.38;;
60054;SDS011;45930;53.514;55.904;2024-02-14T02:22:49;11.40;;;7.23;;
60054;SDS011;45930;53.514;55.904;2024-02-14T02:24:10;13.40;;;6.13;;
60054;SDS011;45930;53.514;55.904;2024-02-14T02:25:11;11.77;;;8.10;;
60054;SDS011;45930;53.514;55.904;2024-02-14T02:26:32;10.15;;;7.55;;
60054;SDS011;45930;53.514;55.904;2024-02-14T02:27:53;10.90;;;7.47;;
60054;SDS011;45930;53.514;55.904;2024-02-14T02:29:04;12.15;;;7.45;;
60054;SDS011;45930;53.514;55.904;2024-02-14T02:30:06;11.25;;;7.95;;
60054;SDS011;45930;53.514;55.904;2024-02-14T02:31:12;7.25;;;5.88;;
60054;SDS011;45930;53.514;55.904;2024-02-14T02:32:14;15.48;;;7.55;;
60054;SDS011;45930;53.514;55.904;2024-02-14T02:33:16;18.80;;;8.23;;
60054;SDS011;45930;53.514;55.904;2024-02-14T02:34:17;16.17;;;9.03;;
60054;SDS011;45930;53.514;55.904;2024-02-14T02:35:18;14.07;;;8.33;;
60054;SDS011;45930;53.514;55.904;2024-02-14T02:36:41;12.38;;;7.78;;
60054;SDS011;45930;53.514;55.904;2024-02-14T02:38:00;16.92;;;7.82;;
60054;SDS011;45930;53.514;55.904;2024-02-14T02:39:21;12.65;;;7.88;;
60054;SDS011;45930;53.514;55.904;2024-02-14T02:40:42;11.20;;;7.63;;
60054;SDS011;45930;53.514;55.904;2024-02-14T02:42:03;8.80;;;6.93;;
60054;SDS011;45930;53.514;55.904;2024-02-14T02:43:30;11.82;;;6.07;;
60054;SDS011;45930;53.514;55.904;2024-02-14T02:44:51;10.35;;;6.47;;
60054;SDS011;45930;53.514;55.904;2024-02-14T02:46:21;10.82;;;5.95;;
60054;SDS011;45930;53.514;55.904;2024-02-14T02:47:42;10.95;;;8.15;;
60054;SDS011;45930;53.514;55.904;2024-02-14T02:49:03;8.05;;;6.28;;
60054;SDS011;45930;53.514;55.904;2024-02-14T02:50:05;12.43;;;9.18;;
60054;SDS011;45930;53.514;55.904;2024-02-14T02:51:28;16.98;;;9.70;;
60054;SDS011;45930;53.514;55.904;2024-02-14T02:52:50;7.45;;;5.53;;
60054;SDS011;45930;53.514;55.904;2024-02-14T02:54:10;14.23;;;7.70;;
60054;SDS011;45930;53.514;55.904;2024-02-14T02:55:32;13.35;;;7.03;;
60054;SDS011;45930;53.514;55.904;2024-02-14T02:56:36;12.90;;;8.32;;
60054;SDS011;45930;53.514;55.904;2024-02-14T02:57:37;14.60;;;8.57;;
60054;SDS011;45930;53.514;55.904;2024-02-14T02:58:39;9.30;;;7.95;;
60054;SDS011;45930;53.514;55.904;2024-02-14T02:59:40;18.60;;;10.27;;
60054;SDS011;45930;53.514;55.904;2024-02-14T03:00:43;10.57;;;7.47;;
60054;SDS011;45930;53.514;55.904;2024-02-14T03:01:55;16.13;;;8.98;;
60054;SDS011;45930;53.514;55.904;2024-02-14T03:03:18;10.65;;;7.47;;
60054;SDS011;45930;53.514;55.904;2024-02-14T03:04:38;12.63;;;8.05;;
60054;SDS011;45930;53.514;55.904;2024-02-14T03:05:59;10.85;;;6.70;;
60054;SDS011;45930;53.514;55.904;2024-02-14T03:07:21;9.80;;;7.15;;
60054;SDS011;45930;53.514;55.904;2024-02-14T03:08:43;7.93;;;6.07;;
60054;SDS011;45930;53.514;55.904;2024-02-14T03:10:04;6.50;;;5.88;;
60054;SDS011;45930;53.514;55.904;2024-02-14T03:11:26;13.57;;;7.53;;
60054;SDS011;45930;53.514;55.904;2024-02-14T03:12:48;17.35;;;9.15;;
60054;SDS011;45930;53.514;55.904;2024-02-14T03:14:08;15.27;;;7.05;;
60054;SDS011;45930;53.514;55.904;2024-02-14T03:15:30;11.32;;;7.65;;
60054;SDS011;45930;53.514;55.904;2024-02-14T03:16:33;16.90;;;8.25;;
60054;SDS011;45930;53.514;55.904;2024-02-14T03:17:34;17.13;;;9.85;;
60054;SDS011;45930;53.514;55.904;2024-02-14T03:18:36;12.80;;;8.82;;
60054;SDS011;45930;53.514;55.904;2024-02-14T03:19:39;18.60;;;10.75;;
60054;SDS011;45930;53.514;55.904;2024-02-14T03:20:40;21.67;;;11.20;;
60054;SDS011;45930;53.514;55.904;2024-02-14T03:21:41;20.63;;;10.50;;
60054;SDS011;45930;53.514;55.904;2024-02-14T03:22:43;19.25;;;9.70;;
60054;SDS011;45930;53.514;55.904;2024-02-14T03:23:47;13.63;;;9.18;;
60054;SDS011;45930;53.514;55.904;2024-02-14T03:24:49;15.77;;;9.30;;
60054;SDS011;45930;53.514;55.904;2024-02-14T03:25:50;13.55;;;9.63;;
60054;SDS011;45930;53.514;55.904;2024-02-14T03:26:52;17.23;;;10.10;;
60054;SDS011;45930;53.514;55.904;2024-02-14T03:27:53;16.80;;;9.63;;
60054;SDS011;45930;53.514;55.904;2024-02-14T03:28:54;21.53;;;9.50;;
60054;SDS011;45930;53.514;55.904;2024-02-14T03:29:55;13.17;;;7.73;;
60054;SDS011;45930;53.514;55.904;2024-02-14T03:30:58;20.63;;;10.63;;
60054;SDS011;45930;53.514;55.904;2024-02-14T03:31:59;12.60;;;9.80;;
60054;SDS011;45930;53.514;55.904;2024-02-14T03:33:04;21.00;;;9.35;;
60054;SDS011;45930;53.514;55.904;2024-02-14T03:34:05;18.52;;;8.48;;
60054;SDS011;45930;53.514;55.904;2024-02-14T03:35:06;11.20;;;8.17;;
60054;SDS011;45930;53.514;55.904;2024-02-14T03:36:07;15.80;;;10.15;;
60054;SDS011;45930;53.514;55.904;2024-02-14T03:37:10;13.50;;;7.63;;
60054;SDS011;45930;53.514;55.904;2024-02-14T03:38:10;12.60;;;7.13;;
60054;SDS011;45930;53.514;55.904;2024-02-14T03:39:11;18.00;;;8.73;;
60054;SDS011;45930;53.514;55.904;2024-02-14T03:40:12;16.47;;;9.27;;
60054;SDS011;45930;53.514;55.904;2024-02-14T03:41:15;17.38;;;9.48;;
60054;SDS011;45930;53.514;55.904;2024-02-14T03:42:16;8.90;;;6.40;;
60054;SDS011;45930;53.514;55.904;2024-02-14T03:43:17;15.70;;;8.70;;
60054;SDS011;45930;53.514;55.904;2024-02-14T03:44:17;18.17;;;11.47;;
60054;SDS011;45930;53.514;55.904;2024-02-14T03:45:18;13.13;;;10.00;;
60054;SDS011;45930;53.514;55.904;2024-02-14T03:46:19;16.03;;;9.17;;
60054;SDS011;45930;53.514;55.904;2024-02-14T03:47:22;12.32;;;8.00;;
60054;SDS011;45930;53.514;55.904;2024-02-14T03:48:23;16.52;;;9.15;;
60054;SDS011;45930;53.514;55.904;2024-02-14T03:49:24;19.40;;;10.13;;
60054;SDS011;45930;53.514;55.904;2024-02-14T03:50:26;15.68;;;8.98;;
60054;SDS011;45930;53.514;55.904;2024-02-14T03:51:26;11.77;;;7.90;;
60054;SDS011;45930;53.514;55.904;2024-02-14T03:52:27;24.10;;;10.43;;
60054;SDS011;45930;53.514;55.904;2024-02-14T03:53:28;15.35;;;7.93;;
60054;SDS011;45930;53.514;55.904;2024-02-14T03:54:29;17.80;;;10.03;;
60054;SDS011;45930;53.514;55.904;2024-02-14T03:55:31;14.95;;;8.13;;
60054;SDS011;45930;53.514;55.904;2024-02-14T03:56:32;15.80;;;9.52;;
60054;SDS011;45930;53.514;55.904;2024-02-14T03:57:33;19.03;;;10.17;;
60054;SDS011;45930;53.514;55.904;2024-02-14T03:58:35;15.52;;;9.23;;
60054;SDS011;45930;53.514;55.904;2024-02-14T03:59:37;15.75;;;10.77;;
60054;SDS011;45930;53.514;55.904;2024-02-14T04:00:39;14.65;;;8.90;;
60054;SDS011;45930;53.514;55.904;2024-02-14T04:01:46;14.33;;;10.33;;
60054;SDS011;45930;53.514;55.904;2024-02-14T04:02:47;15.55;;;8.77;;
60054;SDS011;45930;53.514;55.904;2024-02-14T04:03:49;14.50;;;9.02;;
60054;SDS011;45930;53.514;55.904;2024-02-14T04:04:50;17.07;;;8.87;;
60054;SDS011;45930;53.514;55.904;2024-02-14T04:05:50;17.40;;;10.65;;
60054;SDS011;45930;53.514;55.904;2024-02-14T04:06:51;17.93;;;10.27;;
60054;SDS011;45930;53.514;55.904;2024-02-14T04:07:53;15.30;;;9.65;;
60054;SDS011;45930;53.514;55.904;2024-02-14T04:09:03;11.32;;;8.93;;
60054;SDS011;45930;53.514;55.904;2024-02-14T04:10:04;13.57;;;10.18;;
60054;SDS011;45930;53.514;55.904;2024-02-14T04:11:07;15.07;;;8.93;;
60054;SDS011;45930;53.514;55.904;2024-02-14T04:12:08;18.33;;;11.10;;
60054;SDS011;45930;53.514;55.904;2024-02-14T04:13:10;16.38;;;10.25;;
60054;SDS011;45930;53.514;55.904;2024-02-14T04:14:11;23.70;;;11.20;;
60054;SDS011;45930;53.514;55.904;2024-02-14T04:15:12;18.00;;;10.17;;
60054;SDS011;45930;53.514;55.904;2024-02-14T04:16:23;18.63;;;11.10;;
60054;SDS011;45930;53.514;55.904;2024-02-14T04:17:27;19.17;;;10.10;;
60054;SDS011;45930;53.514;55.904;2024-02-14T04:18:28;17.83;;;10.73;;
60054;SDS011;45930;53.514;55.904;2024-02-14T04:19:29;19.85;;;11.25;;
60054;SDS011;45930;53.514;55.904;2024-02-14T04:20:30;18.53;;;11.43;;
60054;SDS011;45930;53.514;55.904;2024-02-14T04:21:31;20.43;;;10.80;;
60054;SDS011;45930;53.514;55.904;2024-02-14T04:22:32;21.37;;;12.40;;
60054;SDS011;45930;53.514;55.904;2024-02-14T04:23:36;18.02;;;12.30;;
60054;SDS011;45930;53.514;55.904;2024-02-14T04:24:37;19.90;;;11.43;;
60054;SDS011;45930;53.514;55.904;2024-02-14T04:25:38;19.23;;;9.90;;
60054;SDS011;45930;53.514;55.904;2024-02-14T04:26:39;20.98;;;11.13;;
60054;SDS011;45930;53.514;55.904;2024-02-14T04:27:40;21.58;;;12.05;;
60054;SDS011;45930;53.514;55.904;2024-02-14T04:28:44;19.77;;;11.80;;
60054;SDS011;45930;53.514;55.904;2024-02-14T04:29:45;19.35;;;10.50;;
60054;SDS011;45930;53.514;55.904;2024-02-14T04:30:46;20.10;;;11.23;;
60054;SDS011;45930;53.514;55.904;2024-02-14T04:31:56;20.63;;;10.02;;
60054;SDS011;45930;53.514;55.904;2024-02-14T04:32:57;20.90;;;12.23;;
60054;SDS011;45930;53.514;55.904;2024-02-14T04:33:58;18.00;;;11.07;;
60054;SDS011;45930;53.514;55.904;2024-02-14T04:34:59;18.53;;;11.13;;
60054;SDS011;45930;53.514;55.904;2024-02-14T04:36:00;18.90;;;10.77;;
60054;SDS011;45930;53.514;55.904;2024-02-14T04:37:00;20.33;;;11.87;;
60054;SDS011;45930;53.514;55.904;2024-02-14T04:38:02;20.77;;;11.90;;
60054;SDS011;45930;53.514;55.904;2024-02-14T04:39:03;20.63;;;11.73;;
60054;SDS011;45930;53.514;55.904;2024-02-14T04:40:04;24.37;;;12.20;;
60054;SDS011;45930;53.514;55.904;2024-02-14T04:41:06;18.00;;;10.25;;
60054;SDS011;45930;53.514;55.904;2024-02-14T04:42:07;19.42;;;11.45;;
60054;SDS011;45930;53.514;55.904;2024-02-14T04:43:08;20.70;;;10.95;;
60054;SDS011;45930;53.514;55.904;2024-02-14T04:44:10;23.73;;;12.35;;
60054;SDS011;45930;53.514;55.904;2024-02-14T04:45:11;23.03;;;12.00;;
60054;SDS011;45930;53.514;55.904;2024-02-14T04:46:26;19.20;;;9.90;;
60054;SDS011;45930;53.514;55.904;2024-02-14T04:47:27;18.90;;;10.30;;
60054;SDS011;45930;53.514;55.904;2024-02-14T04:48:29;14.50;;;9.85;;
60054;SDS011;45930;53.514;55.904;2024-02-14T04:49:30;21.37;;;10.53;;
60054;SDS011;45930;53.514;55.904;2024-02-14T04:50:31;13.30;;;9.87;;
60054;SDS011;45930;53.514;55.904;2024-02-14T04:51:32;20.13;;;10.93;;
60054;SDS011;45930;53.514;55.904;2024-02-14T04:52:34;24.48;;;10.95;;
60054;SDS011;45930;53.514;55.904;2024-02-14T04:53:34;17.87;;;10.77;;
60054;SDS011;45930;53.514;55.904;2024-02-14T04:54:35;20.90;;;12.13;;
60054;SDS011;45930;53.514;55.904;2024-02-14T04:55:36;21.90;;;11.10;;
60054;SDS011;45930;53.514;55.904;2024-02-14T04:56:37;18.90;;;11.33;;
60054;SDS011;45930;53.514;55.904;2024-02-14T04:57:38;20.47;;;11.00;;
60054;SDS011;45930;53.514;55.904;2024-02-14T04:58:39;12.57;;;8.43;;
60054;SDS011;45930;53.514;55.904;2024-02-14T04:59:39;48.37;;;15.33;;
60054;SDS011;45930;53.514;55.904;2024-02-14T05:00:40;18.43;;;9.60;;
60054;SDS011;45930;53.514;55.904;2024-02-14T05:01:41;18.93;;;10.63;;
60054;SDS011;45930;53.514;55.904;2024-02-14T05:02:42;16.50;;;11.43;;
60054;SDS011;45930;53.514;55.904;2024-02-14T05:03:42;21.70;;;12.03;;
60054;SDS011;45930;53.514;55.904;2024-02-14T05:04:43;18.10;;;10.33;;
60054;SDS011;45930;53.514;55.904;2024-02-14T05:05:44;21.97;;;12.40;;
60054;SDS011;45930;53.514;55.904;2024-02-14T05:06:45;22.43;;;11.67;;
60054;SDS011;45930;53.514;55.904;2024-02-14T05:07:45;14.23;;;10.50;;
60054;SDS011;45930;53.514;55.904;2024-02-14T05:08:46;24.73;;;12.50;;
60054;SDS011;45930;53.514;55.904;2024-02-14T05:09:47;15.10;;;11.03;;
60054;SDS011;45930;53.514;55.904;2024-02-14T05:10:51;15.43;;;9.68;;
60054;SDS011;45930;53.514;55.904;2024-02-14T05:11:52;16.27;;;10.90;;
60054;SDS011;45930;53.514;55.904;2024-02-14T05:12:53;16.27;;;9.77;;
60054;SDS011;45930;53.514;55.904;2024-02-14T05:13:54;25.33;;;12.68;;
60054;SDS011;45930;53.514;55.904;2024-02-14T05:14:55;18.23;;;10.70;;
60054;SDS011;45930;53.514;55.904;2024-02-14T05:15:56;19.80;;;10.33;;
60054;SDS011;45930;53.514;55.904;2024-02-14T05:16:56;19.97;;;10.47;;
60054;SDS011;45930;53.514;55.904;2024-02-14T05:17:57;15.53;;;8.57;;
60054;SDS011;45930;53.514;55.904;2024-02-14T05:18:58;10.93;;;7.97;;
60054;SDS011;45930;53.514;55.904;2024-02-14T05:19:59;14.07;;;9.03;;
60054;SDS011;45930;53.514;55.904;2024-02-14T05:20:59;14.57;;;9.33;;
60054;SDS011;45930;53.514;55.904;2024-02-14T05:22:00;18.87;;;10.83;;
60054;SDS011;45930;53.514;55.904;2024-02-14T05:23:01;24.87;;;12.63;;
60054;SDS011;45930;53.514;55.904;2024-02-14T05:24:02;22.60;;;13.07;;
60054;SDS011;45930;53.514;55.904;2024-02-14T05:25:04;15.70;;;10.70;;
60054;SDS011;45930;53.514;55.904;2024-02-14T05:26:07;16.42;;;10.63;;
60054;SDS011;45930;53.514;55.904;2024-02-14T05:27:08;15.67;;;10.73;;
60054;SDS011;45930;53.514;55.904;2024-02-14T05:28:09;16.80;;;10.33;;
60054;SDS011;45930;53.514;55.904;2024-02-14T05:29:13;18.75;;;10.88;;
60054;SDS011;45930;53.514;55.904;2024-02-14T05:30:14;21.60;;;11.87;;
60054;SDS011;45930;53.514;55.904;2024-02-14T05:31:23;19.48;;;11.13;;
60054;SDS011;45930;53.514;55.904;2024-02-14T05:32:24;21.90;;;12.70;;
60054;SDS011;45930;53.514;55.904;2024-02-14T05:33:25;23.67;;;11.90;;
60054;SDS011;45930;53.514;55.904;2024-02-14T05:34:26;22.83;;;12.77;;
60054;SDS011;45930;53.514;55.904;2024-02-14T05:35:27;18.63;;;11.23;;
60054;SDS011;45930;53.514;55.904;2024-02-14T05:36:28;16.03;;;9.43;;
60054;SDS011;45930;53.514;55.904;2024-02-14T05:37:29;14.50;;;9.67;;
60054;SDS011;45930;53.514;55.904;2024-02-14T05:38:29;18.50;;;10.77;;
60054;SDS011;45930;53.514;55.904;2024-02-14T05:39:30;29.40;;;11.80;;
60054;SDS011;45930;53.514;55.904;2024-02-14T05:40:31;16.33;;;10.87;;
60054;SDS011;45930;53.514;55.904;2024-02-14T05:41:32;20.70;;;11.32;;
60054;SDS011;45930;53.514;55.904;2024-02-14T05:42:33;21.00;;;13.83;;
60054;SDS011;45930;53.514;55.904;2024-02-14T05:43:34;23.27;;;13.20;;
60054;SDS011;45930;53.514;55.904;2024-02-14T05:44:35;20.80;;;10.37;;
60054;SDS011;45930;53.514;55.904;2024-02-14T05:45:36;14.70;;;8.83;;
60054;SDS011;45930;53.514;55.904;2024-02-14T05:46:36;19.63;;;11.00;;
60054;SDS011;45930;53.514;55.904;2024-02-14T05:47:37;11.17;;;7.30;;
60054;SDS011;45930;53.514;55.904;2024-02-14T05:48:39;18.88;;;11.32;;
60054;SDS011;45930;53.514;55.904;2024-02-14T05:49:40;20.73;;;11.23;;
60054;SDS011;45930;53.514;55.904;2024-02-14T05:50:41;16.70;;;11.10;;
60054;SDS011;45930;53.514;55.904;2024-02-14T05:51:42;22.27;;;12.53;;
60054;SDS011;45930;53.514;55.904;2024-02-14T05:52:42;17.97;;;11.67;;
60054;SDS011;45930;53.514;55.904;2024-02-14T05:53:43;17.57;;;9.67;;
60054;SDS011;45930;53.514;55.904;2024-02-14T05:54:44;15.23;;;9.30;;
60054;SDS011;45930;53.514;55.904;2024-02-14T05:55:45;26.87;;;11.67;;
60054;SDS011;45930;53.514;55.904;2024-02-14T05:56:46;23.87;;;11.60;;
60054;SDS011;45930;53.514;55.904;2024-02-14T05:57:47;18.40;;;11.10;;
60054;SDS011;45930;53.514;55.904;2024-02-14T05:58:48;17.30;;;9.75;;
60054;SDS011;45930;53.514;55.904;2024-02-14T05:59:49;19.83;;;11.77;;
60054;SDS011;45930;53.514;55.904;2024-02-14T06:00:50;24.93;;;13.60;;
60054;SDS011;45930;53.514;55.904;2024-02-14T06:01:51;20.70;;;11.60;;
60054;SDS011;45930;53.514;55.904;2024-02-14T06:02:51;14.83;;;9.13;;
60054;SDS011;45930;53.514;55.904;2024-02-14T06:03:52;12.37;;;8.13;;
60054;SDS011;45930;53.514;55.904;2024-02-14T06:04:56;21.05;;;11.00;;
60054;SDS011;45930;53.514;55.904;2024-02-14T06:05:57;12.60;;;9.27;;
60054;SDS011;45930;53.514;55.904;2024-02-14T06:06:57;17.00;;;9.10;;
60054;SDS011;45930;53.514;55.904;2024-02-14T06:07:58;17.97;;;10.13;;
60054;SDS011;45930;53.514;55.904;2024-02-14T06:08:59;20.60;;;11.63;;
60054;SDS011;45930;53.514;55.904;2024-02-14T06:10:00;17.37;;;10.80;;